createdAt,value
2019-05-22T00:02:05.684Z,9.60
2019-05-22T00:11:10.497Z,9.60
2019-05-22T00:14:07.182Z,9.50
2019-05-22T00:17:01.268Z,9.50
2019-05-22T00:19:39.779Z,9.40
2019-05-22T00:22:40.677Z,9.50
2019-05-22T00:25:38.270Z,9.50
2019-05-22T00:28:33.532Z,9.50
2019-05-22T00:31:52.595Z,9.50
2019-05-22T00:34:26.977Z,9.50
2019-05-22T00:37:18.015Z,9.50
2019-05-22T00:40:09.353Z,9.50
2019-05-22T00:45:24.775Z,9.50
2019-05-22T00:47:55.436Z,9.50
2019-05-22T00:50:46.461Z,9.50
2019-05-22T00:53:53.695Z,9.50
2019-05-22T00:57:10.808Z,9.50
2019-05-22T01:00:34.866Z,9.50
2019-05-22T01:03:10.769Z,9.50
2019-05-22T01:05:59.554Z,9.50
2019-05-22T01:08:42.211Z,9.50
2019-05-22T01:11:50.550Z,9.50
2019-05-22T01:14:42.933Z,9.50
2019-05-22T01:17:44.326Z,9.50
2019-05-22T01:20:37.177Z,9.50
2019-05-22T01:23:28.187Z,9.50
2019-05-22T01:26:19.995Z,9.50
2019-05-22T01:29:38.481Z,9.50
2019-05-22T01:32:28.416Z,9.50
2019-05-22T01:35:36.591Z,9.50
2019-05-22T01:38:39.990Z,9.50
2019-05-22T01:41:23.199Z,9.40
2019-05-22T01:44:06.752Z,9.40
2019-05-22T01:46:51.013Z,9.50
2019-05-22T01:49:34.698Z,9.50
2019-05-22T01:52:31.316Z,9.50
2019-05-22T01:55:05.278Z,9.50
2019-05-22T01:58:06.331Z,9.50
2019-05-22T02:00:53.724Z,9.40
2019-05-22T02:03:52.274Z,9.50
2019-05-22T02:06:47.875Z,9.50
2019-05-22T02:10:27.484Z,9.50
2019-05-22T02:13:01.981Z,9.40
2019-05-22T02:15:44.578Z,9.40
2019-05-22T02:18:49.500Z,9.40
2019-05-22T02:21:49.583Z,9.40
2019-05-22T02:25:32.859Z,9.40
2019-05-22T02:27:52.623Z,9.40
2019-05-22T02:31:15.534Z,9.40
2019-05-22T02:33:31.503Z,9.40
2019-05-22T02:36:20.470Z,9.40
2019-05-22T02:38:55.552Z,9.40
2019-05-22T02:41:43.732Z,9.40
2019-05-22T02:44:16.573Z,9.40
2019-05-22T02:46:47.172Z,9.40
2019-05-22T02:49:38.022Z,9.40
2019-05-22T02:52:45.498Z,9.40
2019-05-22T02:58:34.309Z,9.30
2019-05-22T03:01:27.281Z,9.30
2019-05-22T03:04:11.036Z,9.30
2019-05-22T03:06:41.631Z,9.30
2019-05-22T03:09:36.256Z,9.30
2019-05-22T03:12:19.227Z,9.30
2019-05-22T03:14:57.388Z,9.30
2019-05-22T03:17:31.562Z,9.30
2019-05-22T03:20:06.132Z,9.30
2019-05-22T03:22:47.893Z,9.30
2019-05-22T03:25:18.160Z,9.30
2019-05-22T03:27:57.922Z,9.30
2019-05-22T03:30:36.837Z,9.30
2019-05-22T03:33:23.957Z,9.30
2019-05-22T03:36:02.634Z,9.30
2019-05-22T03:38:59.706Z,9.30
2019-05-22T03:42:10.154Z,9.30
2019-05-22T03:44:49.620Z,9.30
2019-05-22T03:47:54.843Z,9.30
2019-05-22T03:50:32.298Z,9.30
2019-05-22T03:53:21.825Z,9.20
2019-05-22T03:55:59.253Z,9.30
2019-05-22T03:58:33.271Z,9.20
2019-05-22T04:01:06.426Z,9.20
2019-05-22T04:03:51.396Z,9.20
2019-05-22T04:09:26.702Z,9.20
2019-05-22T04:11:56.164Z,9.20
2019-05-22T04:15:29.875Z,9.20
2019-05-22T04:18:14.163Z,9.20
2019-05-22T04:20:49.645Z,9.20
2019-05-22T04:23:21.699Z,9.20
2019-05-22T04:26:46.503Z,9.20
2019-05-22T04:29:16.322Z,9.20
2019-05-22T04:32:39.471Z,9.20
2019-05-22T04:35:31.033Z,9.10
2019-05-22T04:38:01.153Z,9.20
2019-05-22T04:41:10.413Z,9.10
2019-05-22T04:44:07.562Z,9.20
2019-05-22T04:47:05.172Z,9.10
2019-05-22T04:49:35.175Z,9.10
2019-05-22T04:52:14.741Z,9.10
2019-05-22T04:54:54.108Z,9.10
2019-05-22T04:57:23.881Z,9.10
2019-05-22T05:00:00.427Z,9.10
2019-05-22T05:02:47.569Z,9.10
2019-05-22T05:05:35.085Z,9.10
2019-05-22T05:08:23.944Z,9.10
2019-05-22T05:11:06.139Z,9.10
2019-05-22T05:13:36.968Z,9.10
2019-05-22T05:16:56.469Z,9.10
2019-05-22T05:23:14.631Z,9.20
2019-05-22T05:26:05.929Z,9.20
2019-05-22T05:28:48.100Z,9.20
2019-05-22T05:35:16.716Z,9.20
2019-05-22T05:55:41.126Z,9.30
2019-05-22T05:59:24.829Z,9.20
2019-05-22T06:03:03.893Z,9.20
2019-05-22T06:21:03.959Z,9.30
2019-05-22T06:28:46.562Z,9.30
2019-05-22T06:39:41.166Z,9.40
2019-05-22T06:42:28.456Z,9.40
2019-05-22T06:45:22.570Z,9.40
2019-05-22T06:47:54.685Z,9.40
2019-05-22T06:51:17.128Z,9.40
2019-05-22T06:53:52.551Z,9.40
2019-05-22T07:00:30.862Z,9.40
2019-05-22T07:03:23.559Z,9.30
2019-05-22T07:06:31.898Z,9.30
2019-05-22T07:09:23.733Z,9.30
2019-05-22T07:15:37.844Z,9.20
2019-05-22T07:18:26.755Z,9.10
2019-05-22T07:21:08.047Z,9.10
2019-05-22T07:23:54.049Z,9.10
2019-05-22T07:29:53.023Z,9.10
2019-05-22T07:32:32.772Z,9.10
2019-05-22T07:35:09.727Z,9.10
2019-05-22T07:38:19.978Z,9.20
2019-05-22T07:41:31.475Z,9.20
2019-05-22T07:47:37.883Z,9.20
2019-05-22T07:50:36.047Z,9.20
2019-05-22T07:53:21.671Z,9.30
2019-05-22T07:59:46.399Z,9.30
2019-05-22T08:05:59.905Z,9.30
2019-05-22T08:20:05.090Z,9.20
2019-05-22T08:35:47.153Z,9.20
2019-05-22T08:38:30.932Z,9.30
2019-05-22T08:48:38.552Z,9.50
2019-05-22T08:59:43.753Z,9.40
2019-05-22T09:05:56.980Z,9.40
2019-05-22T09:08:26.920Z,9.30
2019-05-22T09:11:26.333Z,9.40
2019-05-22T09:14:35.975Z,9.40
2019-05-22T09:17:55.162Z,9.40
2019-05-22T09:20:49.480Z,9.40
2019-05-22T09:23:33.856Z,9.40
2019-05-22T09:32:34.676Z,9.60
2019-05-22T09:35:34.548Z,9.70
2019-05-22T09:38:06.454Z,9.60
2019-05-22T09:40:35.779Z,9.60
2019-05-22T09:43:06.885Z,9.50
2019-05-22T09:45:38.252Z,9.60
2019-05-22T09:48:31.398Z,9.60
2019-05-22T09:51:03.470Z,9.60
2019-05-22T09:53:35.375Z,9.70
2019-05-22T09:56:29.283Z,9.70
2019-05-22T10:02:43.853Z,9.60
2019-05-22T10:05:20.410Z,9.70
2019-05-22T10:08:11.710Z,9.80
2019-05-22T10:10:43.087Z,9.80
2019-05-22T10:13:19.113Z,10.00
2019-05-22T10:15:57.343Z,10.00
2019-05-22T10:18:29.743Z,10.10
2019-05-22T10:21:03.767Z,10.10
2019-05-22T10:23:40.196Z,10.00
2019-05-22T10:26:18.291Z,10.00
2019-05-22T10:28:52.317Z,10.10
2019-05-22T10:31:39.569Z,10.10
2019-05-22T10:34:13.527Z,10.10
2019-05-22T10:36:50.133Z,10.00
2019-05-22T10:39:27.043Z,10.10
2019-05-22T10:42:07.170Z,10.20
2019-05-22T10:48:23.469Z,10.30
2019-05-22T10:50:57.847Z,10.20
2019-05-22T10:53:34.486Z,10.20
2019-05-22T10:56:10.559Z,10.10
2019-05-22T10:58:53.417Z,10.10
2019-05-22T11:01:26.464Z,10.20
2019-05-22T11:04:02.679Z,10.30
2019-05-22T11:06:32.160Z,10.50
2019-05-22T11:09:02.539Z,10.60
2019-05-22T11:11:32.603Z,10.70
2019-05-22T11:14:09.516Z,10.90
2019-05-22T11:16:44.661Z,11.10
2019-05-22T11:19:21.835Z,11.00
2019-05-22T11:22:00.396Z,11.10
2019-05-22T11:24:35.386Z,11.20
2019-05-22T11:27:10.708Z,11.40
2019-05-22T11:29:48.690Z,11.40
2019-05-22T11:32:26.270Z,11.50
2019-05-22T11:35:03.432Z,11.50
2019-05-22T11:37:41.718Z,11.40
2019-05-22T11:40:23.177Z,11.50
2019-05-22T11:43:00.050Z,11.60
2019-05-22T11:45:44.782Z,11.60
2019-05-22T11:48:18.657Z,11.90
2019-05-22T11:51:03.986Z,11.90
2019-05-22T11:53:44.856Z,11.90
2019-05-22T11:56:10.252Z,11.90
2019-05-22T11:58:40.319Z,11.80
2019-05-22T12:01:13.747Z,11.80
2019-05-22T12:03:48.864Z,11.80
2019-05-22T12:06:33.801Z,11.80
2019-05-22T12:09:10.925Z,11.80
2019-05-22T12:11:43.696Z,11.90
2019-05-22T12:14:14.340Z,12.00
2019-05-22T12:17:12.201Z,12.10
2019-05-22T12:19:45.857Z,12.10
2019-05-22T12:22:19.838Z,12.20
2019-05-22T12:24:48.777Z,12.20
2019-05-22T12:27:18.452Z,12.30
2019-05-22T12:29:56.325Z,12.40
2019-05-22T12:32:46.508Z,12.40
2019-05-22T12:35:26.903Z,12.50
2019-05-22T12:37:59.940Z,12.40
2019-05-22T12:40:33.840Z,12.30
2019-05-22T12:43:12.657Z,12.20
2019-05-22T12:45:44.028Z,12.20
2019-05-22T12:48:13.891Z,12.30
2019-05-22T12:50:47.173Z,12.40
2019-05-22T12:53:17.067Z,12.30
2019-05-22T12:55:47.387Z,12.20
2019-05-22T12:58:20.531Z,12.30
2019-05-22T13:00:51.823Z,12.40
2019-05-22T13:03:24.923Z,12.50
2019-05-22T13:06:17.899Z,12.60
2019-05-22T13:08:59.273Z,12.80
2019-05-22T13:11:29.766Z,12.90
2019-05-22T13:13:59.178Z,12.80
2019-05-22T13:16:33.199Z,12.70
2019-05-22T13:19:03.815Z,12.80
2019-05-22T13:21:37.826Z,12.80
2019-05-22T13:24:28.002Z,12.80
2019-05-22T13:26:59.095Z,13.00
2019-05-22T13:29:31.384Z,12.90
2019-05-22T13:32:01.477Z,12.90
2019-05-22T13:34:32.801Z,13.00
2019-05-22T13:37:03.930Z,12.90
2019-05-22T13:39:33.617Z,13.00
2019-05-22T13:42:05.275Z,13.20
2019-05-22T13:44:35.072Z,13.20
2019-05-22T13:47:06.293Z,13.20
2019-05-22T13:49:39.276Z,13.00
2019-05-22T13:52:14.439Z,12.90
2019-05-22T13:54:46.804Z,13.00
2019-05-22T13:57:17.392Z,13.10
2019-05-22T13:59:47.328Z,13.10
2019-05-22T14:02:19.484Z,13.10
2019-05-22T14:04:49.054Z,13.10
2019-05-22T14:07:22.069Z,13.20
2019-05-22T14:09:55.541Z,13.30
2019-05-22T14:12:24.953Z,13.30
2019-05-22T14:15:00.826Z,13.50
2019-05-22T14:17:32.503Z,13.50
2019-05-22T14:20:02.437Z,13.30
2019-05-22T14:22:32.211Z,13.20
2019-05-22T14:25:04.679Z,13.30
2019-05-22T14:27:36.082Z,13.50
2019-05-22T14:30:12.164Z,13.60
2019-05-22T14:32:43.661Z,13.70
2019-05-22T14:35:15.600Z,13.80
2019-05-22T14:37:45.014Z,13.70
2019-05-22T14:40:17.926Z,13.50
2019-05-22T14:42:48.184Z,13.60
2019-05-22T14:45:18.104Z,13.70
2019-05-22T14:47:47.861Z,13.90
2019-05-22T14:50:18.167Z,13.90
2019-05-22T14:52:50.695Z,13.90
2019-05-22T14:55:19.676Z,13.80
2019-05-22T14:57:50.232Z,13.90
2019-05-22T15:00:22.646Z,13.90
2019-05-22T15:02:56.167Z,13.80
2019-05-22T15:05:23.929Z,13.80
2019-05-22T15:07:57.184Z,14.00
2019-05-22T15:10:27.675Z,14.10
2019-05-22T15:12:57.685Z,14.10
2019-05-22T15:15:27.527Z,14.00
2019-05-22T15:18:03.840Z,13.90
2019-05-22T15:20:37.630Z,13.80
2019-05-22T15:23:08.082Z,13.70
2019-05-22T15:25:42.735Z,13.70
2019-05-22T15:28:13.311Z,13.80
2019-05-22T15:30:43.484Z,13.90
2019-05-22T15:33:13.375Z,13.90
2019-05-22T15:35:48.571Z,13.80
2019-05-22T15:38:22.052Z,13.80
2019-05-22T15:40:53.102Z,13.90
2019-05-22T15:43:24.578Z,13.90
2019-05-22T15:45:57.367Z,14.00
2019-05-22T15:48:31.380Z,14.10
2019-05-22T15:51:10.085Z,14.10
2019-05-22T15:53:43.950Z,14.20
2019-05-22T15:56:14.541Z,14.40
2019-05-22T15:58:48.870Z,14.40
2019-05-22T16:01:25.046Z,14.30
2019-05-22T16:03:58.294Z,14.20
2019-05-22T16:06:30.511Z,14.00
2019-05-22T16:09:04.090Z,14.00
2019-05-22T16:11:37.555Z,13.80
2019-05-22T16:14:17.089Z,13.70
2019-05-22T16:16:53.280Z,13.80
2019-05-22T16:19:36.285Z,13.70
2019-05-22T16:22:17.970Z,13.80
2019-05-22T16:25:08.248Z,13.80
2019-05-22T16:27:56.336Z,13.80
2019-05-22T16:30:27.644Z,13.90
2019-05-22T16:32:57.700Z,13.90
2019-05-22T16:35:29.609Z,13.80
2019-05-22T16:38:03.300Z,13.70
2019-05-22T16:40:33.577Z,13.80
2019-05-22T16:43:06.262Z,13.70
2019-05-22T16:45:40.756Z,13.60
2019-05-22T16:48:26.048Z,13.60
2019-05-22T16:50:43.116Z,13.50
2019-05-22T16:53:13.728Z,13.60
2019-05-22T16:55:45.331Z,13.70
2019-05-22T16:58:16.798Z,13.80
2019-05-22T17:00:47.034Z,13.80
2019-05-22T17:03:17.197Z,13.80
2019-05-22T17:05:47.538Z,13.70
2019-05-22T17:08:17.175Z,13.60
2019-05-22T17:10:51.203Z,13.60
2019-05-22T17:13:28.065Z,13.50
2019-05-22T17:16:02.849Z,13.40
2019-05-22T17:18:46.702Z,13.40
2019-05-22T17:21:12.071Z,13.40
2019-05-22T17:23:48.600Z,13.40
2019-05-22T17:26:27.658Z,13.40
2019-05-22T17:29:04.447Z,13.40
2019-05-22T17:31:40.789Z,13.40
2019-05-22T17:34:32.459Z,13.40
2019-05-22T17:37:16.485Z,13.50
2019-05-22T17:39:50.884Z,13.30
2019-05-22T17:42:37.074Z,13.20
2019-05-22T17:45:18.024Z,13.10
2019-05-22T17:47:52.155Z,13.00
2019-05-22T17:50:32.513Z,13.00
2019-05-22T17:53:09.468Z,13.00
2019-05-22T17:55:51.649Z,13.00
2019-05-22T17:58:30.678Z,13.20
2019-05-22T18:01:21.583Z,13.30
2019-05-22T18:03:58.244Z,13.40
2019-05-22T18:06:31.000Z,13.40
2019-05-22T18:09:40.896Z,13.40
2019-05-22T18:12:15.784Z,13.40
2019-05-22T18:14:46.753Z,13.40
2019-05-22T18:17:20.618Z,13.40
2019-05-22T18:20:17.795Z,13.40
2019-05-22T18:22:49.411Z,13.40
2019-05-22T18:25:24.611Z,13.40
2019-05-22T18:28:04.819Z,13.30
2019-05-22T18:30:47.004Z,13.30
2019-05-22T18:34:29.003Z,13.20
2019-05-22T18:38:04.901Z,13.20
2019-05-22T18:41:28.580Z,13.10
2019-05-22T18:44:04.508Z,13.10
2019-05-22T18:46:35.576Z,13.00
2019-05-22T18:49:24.712Z,12.90
2019-05-22T18:52:50.885Z,12.80
2019-05-22T18:56:31.049Z,12.70
2019-05-22T19:00:22.153Z,12.60
2019-05-22T19:17:38.778Z,12.30
2019-05-22T19:20:10.526Z,12.10
2019-05-22T19:22:58.597Z,11.90
2019-05-22T19:25:15.272Z,11.80
2019-05-22T19:27:50.657Z,11.80
2019-05-22T19:30:22.099Z,11.70
2019-05-22T19:32:53.637Z,11.70
2019-05-22T19:35:23.969Z,11.60
2019-05-22T19:38:01.249Z,11.60
2019-05-22T19:40:30.943Z,11.60
2019-05-22T19:43:02.520Z,11.50
2019-05-22T19:45:37.631Z,11.50
2019-05-22T19:48:09.857Z,11.40
2019-05-22T19:51:51.539Z,11.30
2019-05-22T20:01:24.317Z,11.20
2019-05-22T20:05:24.703Z,11.10
2019-05-22T20:08:01.620Z,11.20
2019-05-22T20:10:28.914Z,11.20
2019-05-22T20:13:01.088Z,11.20
2019-05-22T20:15:31.263Z,11.30
2019-05-22T20:18:01.827Z,11.30
2019-05-22T20:20:31.800Z,11.30
2019-05-22T20:23:04.336Z,11.40
2019-05-22T20:25:37.956Z,11.40
2019-05-22T20:28:09.446Z,11.40
2019-05-22T20:31:10.627Z,11.40
2019-05-22T20:34:30.363Z,11.40
2019-05-22T20:37:09.678Z,11.40
2019-05-22T20:39:39.848Z,11.40
2019-05-22T20:42:17.498Z,11.40
2019-05-22T20:44:53.053Z,11.40
2019-05-22T20:47:27.463Z,11.40
2019-05-22T20:50:00.109Z,11.40
2019-05-22T20:52:32.215Z,11.40
2019-05-22T20:55:07.529Z,11.50
2019-05-22T20:57:45.674Z,11.50
2019-05-22T21:00:27.031Z,11.50
2019-05-22T21:03:23.521Z,11.50
2019-05-22T21:06:33.311Z,11.50
2019-05-22T21:09:11.389Z,11.60
2019-05-22T21:11:43.443Z,11.60
2019-05-22T21:14:14.971Z,11.60
2019-05-22T21:16:48.536Z,11.70
2019-05-22T21:19:27.401Z,11.70
2019-05-22T21:22:01.602Z,11.70
2019-05-22T21:24:35.990Z,11.70
2019-05-22T21:27:07.813Z,11.70
2019-05-22T21:29:40.404Z,11.70
2019-05-22T21:32:12.081Z,11.80
2019-05-22T21:34:45.945Z,11.70
2019-05-22T21:37:27.547Z,11.70
2019-05-22T21:40:08.145Z,11.80
2019-05-22T21:42:54.468Z,11.80
2019-05-22T21:45:59.149Z,11.80
2019-05-22T21:48:35.426Z,11.80
2019-05-22T21:51:11.986Z,11.80
2019-05-22T21:53:50.061Z,11.80
2019-05-22T21:56:29.298Z,11.80
2019-05-22T21:59:06.299Z,11.80
2019-05-22T22:01:53.534Z,11.80
2019-05-22T22:04:43.887Z,11.80
2019-05-22T22:07:18.909Z,11.80
2019-05-22T22:09:56.557Z,11.80
2019-05-22T22:12:36.104Z,11.80
2019-05-22T22:15:13.146Z,11.80
2019-05-22T22:17:51.741Z,11.80
2019-05-22T22:20:39.121Z,11.80
2019-05-22T22:23:19.202Z,11.80
2019-05-22T22:25:52.324Z,11.80
2019-05-22T22:28:33.148Z,11.80
2019-05-22T22:31:12.751Z,11.80
2019-05-22T22:33:51.994Z,11.90
2019-05-22T22:36:30.375Z,11.90
2019-05-22T22:39:07.551Z,11.80
2019-05-22T22:41:42.200Z,11.80
2019-05-22T22:44:17.597Z,11.90
2019-05-22T22:47:15.457Z,11.80
2019-05-22T22:49:50.332Z,11.80
2019-05-22T22:52:22.550Z,11.80
2019-05-22T22:54:53.260Z,11.80
2019-05-22T22:57:24.581Z,11.80
2019-05-22T23:00:00.933Z,11.80
2019-05-22T23:02:37.106Z,11.70
2019-05-22T23:05:14.350Z,11.70
2019-05-22T23:07:49.010Z,11.70
2019-05-22T23:10:24.770Z,11.70
2019-05-22T23:12:59.850Z,11.70
2019-05-22T23:15:44.163Z,11.70
2019-05-22T23:18:52.364Z,11.80
2019-05-22T23:21:23.242Z,11.80
2019-05-22T23:23:53.576Z,11.80
2019-05-22T23:26:28.162Z,11.80
2019-05-22T23:29:07.121Z,11.80
2019-05-22T23:31:44.687Z,11.80
2019-05-22T23:34:22.053Z,11.80
2019-05-22T23:36:56.412Z,11.70
2019-05-22T23:39:35.281Z,11.70
2019-05-22T23:42:14.443Z,11.70
2019-05-22T23:44:48.633Z,11.70
2019-05-22T23:47:20.570Z,11.70
2019-05-22T23:49:51.469Z,11.70
2019-05-22T23:52:21.182Z,11.70
2019-05-22T23:54:53.706Z,11.80
2019-05-22T23:57:23.963Z,11.70
